sensor_id;sensor_type;location;lat;lon;timestamp;P1;durP1;ratioP1;P2;durP2;ratioP2
13832;SDS011;6987;19.472;-99.276;2024-01-15T00:02:05;12.93;;;3.55;;
13832;SDS011;6987;19.472;-99.276;2024-01-15T00:04:36;5.95;;;3.10;;
13832;SDS011;6987;19.472;-99.276;2024-01-15T00:07:05;18.40;;;3.35;;
13832;SDS011;6987;19.472;-99.276;2024-01-15T00:09:37;5.68;;;3.42;;
13832;SDS011;6987;19.472;-99.276;2024-01-15T00:12:06;4.28;;;3.08;;
13832;SDS011;6987;19.472;-99.276;2024-01-15T00:14:37;5.22;;;2.88;;
13832;SDS011;6987;19.472;-99.276;2024-01-15T00:17:06;7.45;;;3.45;;
13832;SDS011;6987;19.472;-99.276;2024-01-15T00:19:35;5.85;;;3.17;;
13832;SDS011;6987;19.472;-99.276;2024-01-15T00:22:05;5.07;;;2.95;;
13832;SDS011;6987;19.472;-99.276;2024-01-15T00:24:34;6.55;;;3.70;;
13832;SDS011;6987;19.472;-99.276;2024-01-15T00:27:04;4.88;;;3.35;;
13832;SDS011;6987;19.472;-99.276;2024-01-15T00:29:33;6.22;;;3.33;;
13832;SDS011;6987;19.472;-99.276;2024-01-15T00:32:04;4.85;;;3.35;;
13832;SDS011;6987;19.472;-99.276;2024-01-15T00:34:35;12.52;;;3.88;;
13832;SDS011;6987;19.472;-99.276;2024-01-15T00:37:04;4.07;;;3.55;;
13832;SDS011;6987;19.472;-99.276;2024-01-15T00:39:33;7.32;;;3.83;;
13832;SDS011;6987;19.472;-99.276;2024-01-15T00:42:02;6.55;;;3.90;;
13832;SDS011;6987;19.472;-99.276;2024-01-15T00:44:31;6.28;;;3.72;;
13832;SDS011;6987;19.472;-99.276;2024-01-15T00:47:00;6.15;;;3.75;;
13832;SDS011;6987;19.472;-99.276;2024-01-15T00:49:31;7.90;;;4.78;;
13832;SDS011;6987;19.472;-99.276;2024-01-15T00:52:00;10.57;;;5.72;;
13832;SDS011;6987;19.472;-99.276;2024-01-15T00:54:29;8.00;;;4.68;;
13832;SDS011;6987;19.472;-99.276;2024-01-15T00:56:58;13.77;;;5.35;;
13832;SDS011;6987;19.472;-99.276;2024-01-15T00:59:27;15.52;;;5.70;;
13832;SDS011;6987;19.472;-99.276;2024-01-15T01:01:56;13.23;;;5.30;;
13832;SDS011;6987;19.472;-99.276;2024-01-15T01:04:26;24.05;;;6.85;;
13832;SDS011;6987;19.472;-99.276;2024-01-15T01:06:58;23.70;;;6.63;;
13832;SDS011;6987;19.472;-99.276;2024-01-15T01:09:28;15.00;;;5.13;;
13832;SDS011;6987;19.472;-99.276;2024-01-15T01:11:57;6.65;;;4.70;;
13832;SDS011;6987;19.472;-99.276;2024-01-15T01:14:27;10.88;;;5.13;;
13832;SDS011;6987;19.472;-99.276;2024-01-15T01:16:56;15.32;;;6.22;;
13832;SDS011;6987;19.472;-99.276;2024-01-15T01:19:25;24.02;;;7.55;;
13832;SDS011;6987;19.472;-99.276;2024-01-15T01:21:56;21.92;;;7.90;;
13832;SDS011;6987;19.472;-99.276;2024-01-15T01:24:28;39.70;;;7.50;;
13832;SDS011;6987;19.472;-99.276;2024-01-15T01:26:57;22.83;;;6.50;;
13832;SDS011;6987;19.472;-99.276;2024-01-15T01:29:26;21.83;;;6.50;;
13832;SDS011;6987;19.472;-99.276;2024-01-15T01:31:56;19.60;;;6.93;;
13832;SDS011;6987;19.472;-99.276;2024-01-15T01:34:25;14.10;;;6.22;;
13832;SDS011;6987;19.472;-99.276;2024-01-15T01:36:54;16.55;;;6.72;;
13832;SDS011;6987;19.472;-99.276;2024-01-15T01:39:23;21.90;;;6.55;;
13832;SDS011;6987;19.472;-99.276;2024-01-15T01:41:58;16.52;;;6.88;;
13832;SDS011;6987;19.472;-99.276;2024-01-15T01:44:27;20.63;;;8.50;;
13832;SDS011;6987;19.472;-99.276;2024-01-15T01:46:57;25.75;;;7.65;;
13832;SDS011;6987;19.472;-99.276;2024-01-15T01:49:27;23.42;;;8.57;;
13832;SDS011;6987;19.472;-99.276;2024-01-15T01:51:58;24.50;;;8.70;;
13832;SDS011;6987;19.472;-99.276;2024-01-15T01:54:29;31.95;;;9.25;;
13832;SDS011;6987;19.472;-99.276;2024-01-15T01:57:00;22.60;;;9.38;;
13832;SDS011;6987;19.472;-99.276;2024-01-15T01:59:31;33.80;;;10.20;;
13832;SDS011;6987;19.472;-99.276;2024-01-15T02:02:01;20.77;;;8.88;;
13832;SDS011;6987;19.472;-99.276;2024-01-15T02:04:31;29.88;;;8.90;;
13832;SDS011;6987;19.472;-99.276;2024-01-15T02:07:02;22.27;;;8.20;;
13832;SDS011;6987;19.472;-99.276;2024-01-15T02:09:32;23.35;;;7.78;;
13832;SDS011;6987;19.472;-99.276;2024-01-15T02:12:03;22.25;;;7.35;;
13832;SDS011;6987;19.472;-99.276;2024-01-15T02:14:32;22.13;;;6.47;;
13832;SDS011;6987;19.472;-99.276;2024-01-15T02:17:01;25.33;;;6.90;;
13832;SDS011;6987;19.472;-99.276;2024-01-15T02:19:30;21.70;;;6.60;;
13832;SDS011;6987;19.472;-99.276;2024-01-15T02:21:58;19.33;;;6.05;;
13832;SDS011;6987;19.472;-99.276;2024-01-15T02:24:30;20.08;;;5.80;;
13832;SDS011;6987;19.472;-99.276;2024-01-15T02:26:59;14.32;;;6.20;;
13832;SDS011;6987;19.472;-99.276;2024-01-15T02:29:28;15.18;;;6.00;;
13832;SDS011;6987;19.472;-99.276;2024-01-15T02:31:58;14.80;;;5.50;;
13832;SDS011;6987;19.472;-99.276;2024-01-15T02:34:30;22.85;;;6.55;;
13832;SDS011;6987;19.472;-99.276;2024-01-15T02:37:00;22.90;;;5.22;;
13832;SDS011;6987;19.472;-99.276;2024-01-15T02:39:31;21.25;;;5.80;;
13832;SDS011;6987;19.472;-99.276;2024-01-15T02:41:59;18.33;;;5.68;;
13832;SDS011;6987;19.472;-99.276;2024-01-15T02:44:28;14.38;;;4.93;;
13832;SDS011;6987;19.472;-99.276;2024-01-15T02:46:57;11.70;;;5.75;;
13832;SDS011;6987;19.472;-99.276;2024-01-15T02:49:26;15.85;;;5.22;;
13832;SDS011;6987;19.472;-99.276;2024-01-15T02:51:55;22.00;;;5.10;;
13832;SDS011;6987;19.472;-99.276;2024-01-15T02:54:24;17.83;;;5.57;;
13832;SDS011;6987;19.472;-99.276;2024-01-15T02:56:55;17.65;;;5.38;;
13832;SDS011;6987;19.472;-99.276;2024-01-15T02:59:25;12.45;;;5.20;;
13832;SDS011;6987;19.472;-99.276;2024-01-15T03:01:53;20.67;;;5.45;;
13832;SDS011;6987;19.472;-99.276;2024-01-15T03:04:23;12.50;;;6.43;;
13832;SDS011;6987;19.472;-99.276;2024-01-15T03:06:52;19.27;;;6.75;;
13832;SDS011;6987;19.472;-99.276;2024-01-15T03:09:21;23.92;;;6.45;;
13832;SDS011;6987;19.472;-99.276;2024-01-15T03:11:51;23.35;;;6.28;;
13832;SDS011;6987;19.472;-99.276;2024-01-15T03:14:21;13.70;;;6.47;;
13832;SDS011;6987;19.472;-99.276;2024-01-15T03:16:52;10.77;;;5.50;;
13832;SDS011;6987;19.472;-99.276;2024-01-15T03:19:20;26.00;;;6.50;;
13832;SDS011;6987;19.472;-99.276;2024-01-15T03:21:49;15.25;;;5.45;;
13832;SDS011;6987;19.472;-99.276;2024-01-15T03:24:18;12.73;;;4.75;;
13832;SDS011;6987;19.472;-99.276;2024-01-15T03:26:47;13.30;;;5.00;;
13832;SDS011;6987;19.472;-99.276;2024-01-15T03:29:16;11.68;;;4.60;;
13832;SDS011;6987;19.472;-99.276;2024-01-15T03:31:48;9.57;;;5.53;;
13832;SDS011;6987;19.472;-99.276;2024-01-15T03:34:17;13.65;;;5.25;;
13832;SDS011;6987;19.472;-99.276;2024-01-15T03:36:46;8.55;;;4.65;;
13832;SDS011;6987;19.472;-99.276;2024-01-15T03:39:16;10.35;;;5.10;;
13832;SDS011;6987;19.472;-99.276;2024-01-15T03:41:45;7.65;;;4.22;;
13832;SDS011;6987;19.472;-99.276;2024-01-15T03:44:14;11.45;;;4.43;;
13832;SDS011;6987;19.472;-99.276;2024-01-15T03:46:43;14.38;;;5.18;;
13832;SDS011;6987;19.472;-99.276;2024-01-15T03:49:14;11.23;;;4.47;;
13832;SDS011;6987;19.472;-99.276;2024-01-15T03:51:42;11.77;;;4.18;;
13832;SDS011;6987;19.472;-99.276;2024-01-15T03:54:12;10.35;;;4.47;;
13832;SDS011;6987;19.472;-99.276;2024-01-15T03:56:41;7.00;;;3.97;;
13832;SDS011;6987;19.472;-99.276;2024-01-15T03:59:10;6.90;;;4.60;;
13832;SDS011;6987;19.472;-99.276;2024-01-15T04:01:39;12.13;;;4.95;;
13832;SDS011;6987;19.472;-99.276;2024-01-15T04:04:09;13.07;;;6.43;;
13832;SDS011;6987;19.472;-99.276;2024-01-15T04:06:40;14.02;;;5.72;;
13832;SDS011;6987;19.472;-99.276;2024-01-15T04:09:09;13.73;;;5.57;;
13832;SDS011;6987;19.472;-99.276;2024-01-15T04:11:38;12.30;;;6.05;;
13832;SDS011;6987;19.472;-99.276;2024-01-15T04:14:07;15.35;;;5.43;;
13832;SDS011;6987;19.472;-99.276;2024-01-15T04:16:37;9.35;;;5.25;;
13832;SDS011;6987;19.472;-99.276;2024-01-15T04:19:07;22.63;;;5.80;;
13832;SDS011;6987;19.472;-99.276;2024-01-15T04:21:36;14.38;;;5.70;;
13832;SDS011;6987;19.472;-99.276;2024-01-15T04:24:06;13.95;;;4.90;;
13832;SDS011;6987;19.472;-99.276;2024-01-15T04:26:35;7.57;;;4.75;;
13832;SDS011;6987;19.472;-99.276;2024-01-15T04:29:05;6.93;;;4.55;;
13832;SDS011;6987;19.472;-99.276;2024-01-15T04:31:34;6.90;;;4.55;;
13832;SDS011;6987;19.472;-99.276;2024-01-15T04:34:03;5.57;;;4.40;;
13832;SDS011;6987;19.472;-99.276;2024-01-15T04:36:32;5.47;;;4.57;;
13832;SDS011;6987;19.472;-99.276;2024-01-15T04:39:09;8.02;;;4.10;;
13832;SDS011;6987;19.472;-99.276;2024-01-15T04:41:38;6.20;;;4.28;;
13832;SDS011;6987;19.472;-99.276;2024-01-15T04:44:07;4.93;;;4.32;;
13832;SDS011;6987;19.472;-99.276;2024-01-15T04:46:36;6.88;;;4.05;;
13832;SDS011;6987;19.472;-99.276;2024-01-15T04:49:05;8.30;;;4.75;;
13832;SDS011;6987;19.472;-99.276;2024-01-15T04:51:34;8.75;;;5.20;;
13832;SDS011;6987;19.472;-99.276;2024-01-15T04:54:03;8.18;;;5.20;;
13832;SDS011;6987;19.472;-99.276;2024-01-15T04:56:33;12.15;;;5.25;;
13832;SDS011;6987;19.472;-99.276;2024-01-15T04:59:02;7.90;;;4.55;;
13832;SDS011;6987;19.472;-99.276;2024-01-15T05:01:32;9.48;;;4.43;;
13832;SDS011;6987;19.472;-99.276;2024-01-15T05:04:02;10.43;;;4.07;;
13832;SDS011;6987;19.472;-99.276;2024-01-15T05:06:31;6.40;;;3.72;;
13832;SDS011;6987;19.472;-99.276;2024-01-15T05:09:01;6.90;;;4.30;;
13832;SDS011;6987;19.472;-99.276;2024-01-15T05:11:30;10.00;;;4.93;;
13832;SDS011;6987;19.472;-99.276;2024-01-15T05:14:01;6.90;;;4.03;;
13832;SDS011;6987;19.472;-99.276;2024-01-15T05:16:30;7.50;;;4.13;;
13832;SDS011;6987;19.472;-99.276;2024-01-15T05:18:59;6.50;;;3.83;;
13832;SDS011;6987;19.472;-99.276;2024-01-15T05:21:28;6.25;;;4.13;;
13832;SDS011;6987;19.472;-99.276;2024-01-15T05:23:57;10.48;;;4.57;;
13832;SDS011;6987;19.472;-99.276;2024-01-15T05:26:26;10.80;;;4.65;;
13832;SDS011;6987;19.472;-99.276;2024-01-15T05:28:55;13.48;;;4.97;;
13832;SDS011;6987;19.472;-99.276;2024-01-15T05:31:26;12.20;;;4.53;;
13832;SDS011;6987;19.472;-99.276;2024-01-15T05:33:55;9.00;;;4.20;;
13832;SDS011;6987;19.472;-99.276;2024-01-15T05:36:25;14.55;;;4.68;;
13832;SDS011;6987;19.472;-99.276;2024-01-15T05:38:54;5.60;;;3.88;;
13832;SDS011;6987;19.472;-99.276;2024-01-15T05:41:23;8.93;;;4.60;;
13832;SDS011;6987;19.472;-99.276;2024-01-15T05:43:52;9.05;;;4.03;;
13832;SDS011;6987;19.472;-99.276;2024-01-15T05:46:21;19.58;;;3.97;;
13832;SDS011;6987;19.472;-99.276;2024-01-15T05:48:52;9.32;;;4.10;;
13832;SDS011;6987;19.472;-99.276;2024-01-15T05:51:21;6.32;;;4.10;;
13832;SDS011;6987;19.472;-99.276;2024-01-15T05:53:50;9.48;;;4.03;;
13832;SDS011;6987;19.472;-99.276;2024-01-15T05:56:19;6.65;;;4.30;;
13832;SDS011;6987;19.472;-99.276;2024-01-15T05:58:50;7.00;;;3.70;;
13832;SDS011;6987;19.472;-99.276;2024-01-15T06:01:20;4.78;;;3.65;;
13832;SDS011;6987;19.472;-99.276;2024-01-15T06:03:51;6.57;;;3.70;;
13832;SDS011;6987;19.472;-99.276;2024-01-15T06:06:20;6.03;;;3.70;;
13832;SDS011;6987;19.472;-99.276;2024-01-15T06:08:50;4.28;;;3.20;;
13832;SDS011;6987;19.472;-99.276;2024-01-15T06:11:19;5.72;;;3.58;;
13832;SDS011;6987;19.472;-99.276;2024-01-15T06:13:49;13.85;;;4.10;;
13832;SDS011;6987;19.472;-99.276;2024-01-15T06:16:18;8.40;;;3.75;;
13832;SDS011;6987;19.472;-99.276;2024-01-15T06:18:48;5.80;;;3.40;;
13832;SDS011;6987;19.472;-99.276;2024-01-15T06:21:20;7.20;;;4.20;;
13832;SDS011;6987;19.472;-99.276;2024-01-15T06:23:49;7.28;;;3.80;;
13832;SDS011;6987;19.472;-99.276;2024-01-15T06:26:18;4.57;;;4.00;;
13832;SDS011;6987;19.472;-99.276;2024-01-15T06:28:47;11.35;;;3.85;;
13832;SDS011;6987;19.472;-99.276;2024-01-15T06:31:16;8.02;;;3.50;;
13832;SDS011;6987;19.472;-99.276;2024-01-15T06:33:46;6.22;;;3.80;;
13832;SDS011;6987;19.472;-99.276;2024-01-15T06:36:15;5.88;;;4.13;;
13832;SDS011;6987;19.472;-99.276;2024-01-15T06:38:46;4.85;;;3.40;;
13832;SDS011;6987;19.472;-99.276;2024-01-15T06:41:15;7.60;;;3.72;;
13832;SDS011;6987;19.472;-99.276;2024-01-15T06:43:44;6.20;;;3.92;;
13832;SDS011;6987;19.472;-99.276;2024-01-15T06:46:19;7.07;;;4.07;;
13832;SDS011;6987;19.472;-99.276;2024-01-15T06:48:48;5.25;;;3.53;;
13832;SDS011;6987;19.472;-99.276;2024-01-15T06:51:17;4.00;;;3.42;;
13832;SDS011;6987;19.472;-99.276;2024-01-15T06:53:49;3.80;;;3.33;;
13832;SDS011;6987;19.472;-99.276;2024-01-15T06:56:18;6.75;;;3.38;;
13832;SDS011;6987;19.472;-99.276;2024-01-15T06:58:47;5.60;;;3.00;;
13832;SDS011;6987;19.472;-99.276;2024-01-15T07:01:16;6.47;;;3.20;;
13832;SDS011;6987;19.472;-99.276;2024-01-15T07:03:45;3.70;;;3.25;;
13832;SDS011;6987;19.472;-99.276;2024-01-15T07:06:14;6.05;;;3.13;;
13832;SDS011;6987;19.472;-99.276;2024-01-15T07:08:45;4.88;;;3.58;;
13832;SDS011;6987;19.472;-99.276;2024-01-15T07:11:16;4.80;;;3.40;;
13832;SDS011;6987;19.472;-99.276;2024-01-15T07:13:46;5.88;;;3.85;;
13832;SDS011;6987;19.472;-99.276;2024-01-15T07:16:15;2.90;;;2.70;;
13832;SDS011;6987;19.472;-99.276;2024-01-15T07:18:44;5.90;;;3.03;;
13832;SDS011;6987;19.472;-99.276;2024-01-15T07:21:13;3.67;;;2.80;;
13832;SDS011;6987;19.472;-99.276;2024-01-15T07:23:43;6.28;;;3.33;;
13832;SDS011;6987;19.472;-99.276;2024-01-15T07:26:12;8.05;;;3.28;;
13832;SDS011;6987;19.472;-99.276;2024-01-15T07:28:43;8.02;;;3.30;;
13832;SDS011;6987;19.472;-99.276;2024-01-15T07:31:15;4.55;;;3.15;;
13832;SDS011;6987;19.472;-99.276;2024-01-15T07:33:45;3.60;;;2.90;;
13832;SDS011;6987;19.472;-99.276;2024-01-15T07:36:14;5.13;;;3.22;;
13832;SDS011;6987;19.472;-99.276;2024-01-15T07:38:43;2.75;;;2.55;;
13832;SDS011;6987;19.472;-99.276;2024-01-15T07:41:12;6.35;;;2.92;;
13832;SDS011;6987;19.472;-99.276;2024-01-15T07:43:44;2.72;;;2.53;;
13832;SDS011;6987;19.472;-99.276;2024-01-15T07:46:13;5.78;;;2.83;;
13832;SDS011;6987;19.472;-99.276;2024-01-15T07:48:42;3.53;;;2.40;;
13832;SDS011;6987;19.472;-99.276;2024-01-15T07:51:11;4.57;;;2.90;;
13832;SDS011;6987;19.472;-99.276;2024-01-15T07:53:41;2.45;;;2.25;;
13832;SDS011;6987;19.472;-99.276;2024-01-15T07:56:11;2.85;;;2.55;;
13832;SDS011;6987;19.472;-99.276;2024-01-15T07:58:40;2.75;;;2.47;;
13832;SDS011;6987;19.472;-99.276;2024-01-15T08:01:12;3.00;;;2.65;;
13832;SDS011;6987;19.472;-99.276;2024-01-15T08:03:41;4.60;;;2.33;;
13832;SDS011;6987;19.472;-99.276;2024-01-15T08:06:09;3.28;;;2.28;;
13832;SDS011;6987;19.472;-99.276;2024-01-15T08:08:39;2.28;;;2.13;;
13832;SDS011;6987;19.472;-99.276;2024-01-15T08:11:08;3.20;;;2.20;;
13832;SDS011;6987;19.472;-99.276;2024-01-15T08:13:37;2.08;;;1.98;;
13832;SDS011;6987;19.472;-99.276;2024-01-15T08:16:06;3.15;;;2.22;;
13832;SDS011;6987;19.472;-99.276;2024-01-15T08:18:37;6.00;;;2.50;;
13832;SDS011;6987;19.472;-99.276;2024-01-15T08:21:06;6.15;;;2.10;;
13832;SDS011;6987;19.472;-99.276;2024-01-15T08:23:36;2.60;;;2.00;;
13832;SDS011;6987;19.472;-99.276;2024-01-15T08:26:05;2.47;;;2.28;;
13832;SDS011;6987;19.472;-99.276;2024-01-15T08:28:35;2.50;;;2.30;;
13832;SDS011;6987;19.472;-99.276;2024-01-15T08:31:04;4.03;;;2.03;;
13832;SDS011;6987;19.472;-99.276;2024-01-15T08:33:33;3.42;;;1.90;;
13832;SDS011;6987;19.472;-99.276;2024-01-15T08:36:05;3.47;;;2.03;;
13832;SDS011;6987;19.472;-99.276;2024-01-15T08:38:34;4.38;;;2.20;;
13832;SDS011;6987;19.472;-99.276;2024-01-15T08:41:03;4.53;;;1.55;;
13832;SDS011;6987;19.472;-99.276;2024-01-15T08:43:34;3.60;;;1.90;;
13832;SDS011;6987;19.472;-99.276;2024-01-15T08:46:03;1.90;;;1.70;;
13832;SDS011;6987;19.472;-99.276;2024-01-15T08:48:32;1.70;;;1.60;;
13832;SDS011;6987;19.472;-99.276;2024-01-15T08:51:01;2.92;;;2.00;;
13832;SDS011;6987;19.472;-99.276;2024-01-15T08:53:32;2.65;;;1.80;;
13832;SDS011;6987;19.472;-99.276;2024-01-15T08:56:01;2.80;;;1.90;;
13832;SDS011;6987;19.472;-99.276;2024-01-15T08:58:31;1.30;;;1.30;;
13832;SDS011;6987;19.472;-99.276;2024-01-15T09:01:01;1.60;;;1.50;;
13832;SDS011;6987;19.472;-99.276;2024-01-15T09:03:30;2.10;;;1.65;;
13832;SDS011;6987;19.472;-99.276;2024-01-15T09:05:59;2.33;;;1.45;;
13832;SDS011;6987;19.472;-99.276;2024-01-15T09:08:29;4.35;;;1.63;;
13832;SDS011;6987;19.472;-99.276;2024-01-15T09:10:59;2.63;;;1.42;;
13832;SDS011;6987;19.472;-99.276;2024-01-15T09:13:30;1.67;;;1.30;;
13832;SDS011;6987;19.472;-99.276;2024-01-15T09:15:59;4.28;;;1.50;;
13832;SDS011;6987;19.472;-99.276;2024-01-15T09:18:29;2.20;;;1.65;;
13832;SDS011;6987;19.472;-99.276;2024-01-15T09:20:58;1.48;;;1.38;;
13832;SDS011;6987;19.472;-99.276;2024-01-15T09:23:28;1.58;;;1.48;;
13832;SDS011;6987;19.472;-99.276;2024-01-15T09:25:59;1.88;;;1.17;;
13832;SDS011;6987;19.472;-99.276;2024-01-15T09:28:28;1.40;;;1.30;;
13832;SDS011;6987;19.472;-99.276;2024-01-15T09:30:58;1.35;;;1.25;;
13832;SDS011;6987;19.472;-99.276;2024-01-15T09:33:27;1.70;;;1.60;;
13832;SDS011;6987;19.472;-99.276;2024-01-15T09:35:57;2.17;;;1.42;;
13832;SDS011;6987;19.472;-99.276;2024-01-15T09:38:26;2.17;;;1.20;;
13832;SDS011;6987;19.472;-99.276;2024-01-15T09:40:55;1.20;;;1.20;;
13832;SDS011;6987;19.472;-99.276;2024-01-15T09:43:27;1.17;;;1.13;;
13832;SDS011;6987;19.472;-99.276;2024-01-15T09:45:56;1.55;;;1.25;;
13832;SDS011;6987;19.472;-99.276;2024-01-15T09:48:25;1.42;;;1.25;;
13832;SDS011;6987;19.472;-99.276;2024-01-15T09:50:54;0.95;;;0.95;;
13832;SDS011;6987;19.472;-99.276;2024-01-15T09:53:24;2.28;;;1.25;;
13832;SDS011;6987;19.472;-99.276;2024-01-15T09:55:53;1.40;;;1.30;;
13832;SDS011;6987;19.472;-99.276;2024-01-15T09:58:22;1.02;;;1.02;;
13832;SDS011;6987;19.472;-99.276;2024-01-15T10:00:54;1.13;;;1.08;;
13832;SDS011;6987;19.472;-99.276;2024-01-15T10:03:23;1.42;;;1.10;;
13832;SDS011;6987;19.472;-99.276;2024-01-15T10:05:53;1.00;;;1.00;;
13832;SDS011;6987;19.472;-99.276;2024-01-15T10:08:22;1.30;;;1.00;;
13832;SDS011;6987;19.472;-99.276;2024-01-15T10:10:52;0.77;;;0.77;;
13832;SDS011;6987;19.472;-99.276;2024-01-15T10:13:22;1.42;;;1.00;;
13832;SDS011;6987;19.472;-99.276;2024-01-15T10:15:53;1.92;;;0.90;;
13832;SDS011;6987;19.472;-99.276;2024-01-15T10:18:22;0.93;;;0.90;;
13832;SDS011;6987;19.472;-99.276;2024-01-15T10:20:53;1.13;;;1.02;;
13832;SDS011;6987;19.472;-99.276;2024-01-15T10:23:23;1.02;;;1.00;;
13832;SDS011;6987;19.472;-99.276;2024-01-15T10:25:52;0.80;;;0.80;;
13832;SDS011;6987;19.472;-99.276;2024-01-15T10:28:21;2.40;;;0.90;;
13832;SDS011;6987;19.472;-99.276;2024-01-15T10:30:55;0.70;;;0.70;;
13832;SDS011;6987;19.472;-99.276;2024-01-15T10:33:24;1.65;;;0.80;;
13832;SDS011;6987;19.472;-99.276;2024-01-15T10:35:54;1.25;;;1.00;;
13832;SDS011;6987;19.472;-99.276;2024-01-15T10:38:23;1.27;;;0.80;;
13832;SDS011;6987;19.472;-99.276;2024-01-15T10:40:53;0.95;;;0.93;;
13832;SDS011;6987;19.472;-99.276;2024-01-15T10:43:23;2.75;;;0.88;;
13832;SDS011;6987;19.472;-99.276;2024-01-15T10:45:54;0.80;;;0.80;;
13832;SDS011;6987;19.472;-99.276;2024-01-15T10:48:23;6.10;;;0.70;;
13832;SDS011;6987;19.472;-99.276;2024-01-15T10:50:54;1.00;;;0.88;;
13832;SDS011;6987;19.472;-99.276;2024-01-15T10:53:23;0.75;;;0.75;;
13832;SDS011;6987;19.472;-99.276;2024-01-15T10:55:53;1.10;;;0.90;;
13832;SDS011;6987;19.472;-99.276;2024-01-15T10:58:23;0.70;;;0.70;;
13832;SDS011;6987;19.472;-99.276;2024-01-15T11:00:55;0.90;;;0.63;;
13832;SDS011;6987;19.472;-99.276;2024-01-15T11:03:25;1.10;;;1.02;;
13832;SDS011;6987;19.472;-99.276;2024-01-15T11:05:54;0.70;;;0.70;;
13832;SDS011;6987;19.472;-99.276;2024-01-15T11:08:23;0.80;;;0.73;;
13832;SDS011;6987;19.472;-99.276;2024-01-15T11:10:53;1.73;;;1.00;;
13832;SDS011;6987;19.472;-99.276;2024-01-15T11:16:11;1.00;;;1.00;;
13832;SDS011;6987;19.472;-99.276;2024-01-15T11:18:41;0.60;;;0.60;;
13832;SDS011;6987;19.472;-99.276;2024-01-15T11:23:58;4.38;;;1.30;;
13832;SDS011;6987;19.472;-99.276;2024-01-15T11:26:28;1.33;;;1.10;;
13832;SDS011;6987;19.472;-99.276;2024-01-15T11:28:56;3.58;;;1.13;;
13832;SDS011;6987;19.472;-99.276;2024-01-15T11:31:30;2.45;;;1.15;;
13832;SDS011;6987;19.472;-99.276;2024-01-15T11:34:19;0.80;;;0.80;;
13832;SDS011;6987;19.472;-99.276;2024-01-15T11:37:01;3.72;;;1.45;;
13832;SDS011;6987;19.472;-99.276;2024-01-15T11:39:40;2.95;;;1.10;;
13832;SDS011;6987;19.472;-99.276;2024-01-15T11:42:18;3.08;;;1.30;;
13832;SDS011;6987;19.472;-99.276;2024-01-15T11:44:48;5.30;;;1.48;;
13832;SDS011;6987;19.472;-99.276;2024-01-15T11:47:24;2.13;;;1.38;;
13832;SDS011;6987;19.472;-99.276;2024-01-15T11:50:02;2.80;;;1.65;;
13832;SDS011;6987;19.472;-99.276;2024-01-15T11:52:34;3.88;;;2.20;;
13832;SDS011;6987;19.472;-99.276;2024-01-15T11:55:11;8.57;;;1.98;;
13832;SDS011;6987;19.472;-99.276;2024-01-15T11:57:45;4.40;;;2.65;;
13832;SDS011;6987;19.472;-99.276;2024-01-15T12:00:15;2.60;;;2.00;;
13832;SDS011;6987;19.472;-99.276;2024-01-15T12:02:47;6.45;;;2.45;;
13832;SDS011;6987;19.472;-99.276;2024-01-15T12:05:18;5.00;;;2.90;;
13832;SDS011;6987;19.472;-99.276;2024-01-15T12:07:47;6.28;;;2.25;;
13832;SDS011;6987;19.472;-99.276;2024-01-15T12:10:17;8.88;;;3.08;;
13832;SDS011;6987;19.472;-99.276;2024-01-15T12:12:53;20.58;;;3.00;;
13832;SDS011;6987;19.472;-99.276;2024-01-15T12:15:26;3.45;;;2.90;;
13832;SDS011;6987;19.472;-99.276;2024-01-15T12:17:57;12.63;;;3.78;;
13832;SDS011;6987;19.472;-99.276;2024-01-15T12:20:28;7.05;;;3.42;;
13832;SDS011;6987;19.472;-99.276;2024-01-15T12:22:57;15.32;;;4.88;;
13832;SDS011;6987;19.472;-99.276;2024-01-15T12:25:26;15.30;;;4.40;;
13832;SDS011;6987;19.472;-99.276;2024-01-15T12:27:56;15.80;;;5.18;;
13832;SDS011;6987;19.472;-99.276;2024-01-15T12:30:25;21.33;;;4.28;;
13832;SDS011;6987;19.472;-99.276;2024-01-15T12:32:55;12.88;;;4.22;;
13832;SDS011;6987;19.472;-99.276;2024-01-15T12:35:26;13.18;;;4.47;;
13832;SDS011;6987;19.472;-99.276;2024-01-15T12:37:56;14.15;;;4.25;;
13832;SDS011;6987;19.472;-99.276;2024-01-15T12:40:26;19.95;;;4.70;;
13832;SDS011;6987;19.472;-99.276;2024-01-15T12:42:55;12.98;;;4.63;;
13832;SDS011;6987;19.472;-99.276;2024-01-15T12:45:24;11.73;;;4.95;;
13832;SDS011;6987;19.472;-99.276;2024-01-15T12:47:54;17.83;;;5.22;;
13832;SDS011;6987;19.472;-99.276;2024-01-15T12:50:26;10.98;;;4.32;;
13832;SDS011;6987;19.472;-99.276;2024-01-15T12:52:55;9.07;;;4.45;;
13832;SDS011;6987;19.472;-99.276;2024-01-15T12:55:25;16.15;;;4.88;;
13832;SDS011;6987;19.472;-99.276;2024-01-15T12:57:55;7.38;;;4.13;;
13832;SDS011;6987;19.472;-99.276;2024-01-15T13:00:23;7.55;;;3.70;;
13832;SDS011;6987;19.472;-99.276;2024-01-15T13:02:53;8.25;;;3.72;;
13832;SDS011;6987;19.472;-99.276;2024-01-15T13:05:23;8.95;;;3.75;;
13832;SDS011;6987;19.472;-99.276;2024-01-15T13:07:54;18.92;;;5.18;;
13832;SDS011;6987;19.472;-99.276;2024-01-15T13:10:25;13.40;;;4.63;;
13832;SDS011;6987;19.472;-99.276;2024-01-15T13:12:55;13.35;;;4.18;;
13832;SDS011;6987;19.472;-99.276;2024-01-15T13:15:24;21.48;;;4.80;;
13832;SDS011;6987;19.472;-99.276;2024-01-15T13:17:54;16.42;;;5.07;;
13832;SDS011;6987;19.472;-99.276;2024-01-15T13:20:23;20.60;;;4.93;;
13832;SDS011;6987;19.472;-99.276;2024-01-15T13:22:52;11.05;;;4.45;;
13832;SDS011;6987;19.472;-99.276;2024-01-15T13:25:23;20.27;;;4.43;;
13832;SDS011;6987;19.472;-99.276;2024-01-15T13:27:52;10.73;;;3.50;;
13832;SDS011;6987;19.472;-99.276;2024-01-15T13:30:21;9.18;;;3.83;;
13832;SDS011;6987;19.472;-99.276;2024-01-15T13:32:51;9.60;;;3.90;;
13832;SDS011;6987;19.472;-99.276;2024-01-15T13:35:22;9.68;;;4.15;;
13832;SDS011;6987;19.472;-99.276;2024-01-15T13:37:50;9.82;;;3.85;;
13832;SDS011;6987;19.472;-99.276;2024-01-15T13:40:19;21.13;;;4.25;;
13832;SDS011;6987;19.472;-99.276;2024-01-15T13:42:50;19.95;;;4.80;;
13832;SDS011;6987;19.472;-99.276;2024-01-15T13:45:20;18.10;;;4.22;;
13832;SDS011;6987;19.472;-99.276;2024-01-15T13:47:50;16.95;;;3.97;;
13832;SDS011;6987;19.472;-99.276;2024-01-15T13:50:20;18.40;;;3.60;;
13832;SDS011;6987;19.472;-99.276;2024-01-15T13:52:48;14.88;;;4.03;;
13832;SDS011;6987;19.472;-99.276;2024-01-15T13:55:19;21.15;;;4.50;;
13832;SDS011;6987;19.472;-99.276;2024-01-15T13:57:48;14.40;;;3.67;;
13832;SDS011;6987;19.472;-99.276;2024-01-15T14:00:19;13.82;;;4.40;;
13832;SDS011;6987;19.472;-99.276;2024-01-15T14:02:49;20.40;;;4.28;;
13832;SDS011;6987;19.472;-99.276;2024-01-15T14:05:18;12.52;;;4.22;;
13832;SDS011;6987;19.472;-99.276;2024-01-15T14:07:47;14.43;;;4.07;;
13832;SDS011;6987;19.472;-99.276;2024-01-15T14:10:16;13.73;;;3.95;;
13832;SDS011;6987;19.472;-99.276;2024-01-15T14:12:46;15.57;;;3.60;;
13832;SDS011;6987;19.472;-99.276;2024-01-15T14:15:14;14.00;;;3.35;;
13832;SDS011;6987;19.472;-99.276;2024-01-15T14:17:48;13.77;;;3.55;;
13832;SDS011;6987;19.472;-99.276;2024-01-15T14:20:18;15.23;;;3.17;;
13832;SDS011;6987;19.472;-99.276;2024-01-15T14:22:47;5.75;;;3.03;;
13832;SDS011;6987;19.472;-99.276;2024-01-15T14:25:16;7.43;;;3.30;;
13832;SDS011;6987;19.472;-99.276;2024-01-15T14:27:45;7.18;;;2.95;;
13832;SDS011;6987;19.472;-99.276;2024-01-15T14:30:14;4.00;;;2.30;;
13832;SDS011;6987;19.472;-99.276;2024-01-15T14:32:43;7.13;;;2.58;;
13832;SDS011;6987;19.472;-99.276;2024-01-15T14:35:14;5.13;;;2.80;;
13832;SDS011;6987;19.472;-99.276;2024-01-15T14:37:43;4.97;;;2.42;;
13832;SDS011;6987;19.472;-99.276;2024-01-15T14:40:13;3.55;;;2.40;;
13832;SDS011;6987;19.472;-99.276;2024-01-15T14:42:44;9.07;;;2.38;;
13832;SDS011;6987;19.472;-99.276;2024-01-15T14:45:13;8.93;;;2.67;;
13832;SDS011;6987;19.472;-99.276;2024-01-15T14:47:42;12.43;;;3.50;;
13832;SDS011;6987;19.472;-99.276;2024-01-15T14:50:11;21.60;;;3.72;;